sensor_id;sensor_type;location;lat;lon;timestamp;P1;durP1;ratioP1;P2;durP2;ratioP2
67053;SDS011;53960;51.826;5.850;2024-01-15T00:00:10;3.77;;;0.80;;
67053;SDS011;53960;51.826;5.850;2024-01-15T00:02:35;4.90;;;0.90;;
67053;SDS011;53960;51.826;5.850;2024-01-15T00:05:01;5.13;;;0.90;;
67053;SDS011;53960;51.826;5.850;2024-01-15T00:07:26;6.23;;;1.23;;
67053;SDS011;53960;51.826;5.850;2024-01-15T00:09:51;4.00;;;0.90;;
67053;SDS011;53960;51.826;5.850;2024-01-15T00:12:16;4.60;;;1.03;;
67053;SDS011;53960;51.826;5.850;2024-01-15T00:14:42;6.80;;;1.20;;
67053;SDS011;53960;51.826;5.850;2024-01-15T00:17:07;5.03;;;1.10;;
67053;SDS011;53960;51.826;5.850;2024-01-15T00:19:32;6.20;;;1.10;;
67053;SDS011;53960;51.826;5.850;2024-01-15T00:21:58;5.03;;;1.03;;
67053;SDS011;53960;51.826;5.850;2024-01-15T00:24:24;7.47;;;1.23;;
67053;SDS011;53960;51.826;5.850;2024-01-15T00:26:49;6.37;;;1.10;;
67053;SDS011;53960;51.826;5.850;2024-01-15T00:29:14;6.30;;;1.23;;
67053;SDS011;53960;51.826;5.850;2024-01-15T00:31:40;9.50;;;1.43;;
67053;SDS011;53960;51.826;5.850;2024-01-15T00:34:05;5.47;;;1.23;;
67053;SDS011;53960;51.826;5.850;2024-01-15T00:36:30;7.20;;;1.13;;
67053;SDS011;53960;51.826;5.850;2024-01-15T00:38:56;4.07;;;1.00;;
67053;SDS011;53960;51.826;5.850;2024-01-15T00:41:21;10.37;;;1.20;;
67053;SDS011;53960;51.826;5.850;2024-01-15T00:43:47;7.20;;;1.20;;
67053;SDS011;53960;51.826;5.850;2024-01-15T00:46:14;7.25;;;1.27;;
67053;SDS011;53960;51.826;5.850;2024-01-15T00:48:40;5.03;;;1.10;;
67053;SDS011;53960;51.826;5.850;2024-01-15T00:51:05;6.43;;;1.50;;
67053;SDS011;53960;51.826;5.850;2024-01-15T00:53:31;5.47;;;1.40;;
67053;SDS011;53960;51.826;5.850;2024-01-15T00:55:56;8.17;;;1.50;;
67053;SDS011;53960;51.826;5.850;2024-01-15T00:58:22;7.75;;;1.60;;
67053;SDS011;53960;51.826;5.850;2024-01-15T01:00:47;8.17;;;1.67;;
67053;SDS011;53960;51.826;5.850;2024-01-15T01:03:13;7.27;;;1.90;;
67053;SDS011;53960;51.826;5.850;2024-01-15T01:05:38;10.07;;;2.27;;
67053;SDS011;53960;51.826;5.850;2024-01-15T01:08:03;4.93;;;1.55;;
67053;SDS011;53960;51.826;5.850;2024-01-15T01:10:29;8.00;;;1.73;;
67053;SDS011;53960;51.826;5.850;2024-01-15T01:12:55;9.90;;;2.10;;
67053;SDS011;53960;51.826;5.850;2024-01-15T01:15:21;7.37;;;2.00;;
67053;SDS011;53960;51.826;5.850;2024-01-15T01:17:46;7.37;;;1.90;;
67053;SDS011;53960;51.826;5.850;2024-01-15T01:20:11;8.43;;;1.90;;
67053;SDS011;53960;51.826;5.850;2024-01-15T01:22:37;6.33;;;2.00;;
67053;SDS011;53960;51.826;5.850;2024-01-15T01:25:04;8.32;;;1.90;;
67053;SDS011;53960;51.826;5.850;2024-01-15T01:27:31;7.60;;;2.28;;
67053;SDS011;53960;51.826;5.850;2024-01-15T01:29:57;12.50;;;2.40;;
67053;SDS011;53960;51.826;5.850;2024-01-15T01:32:22;11.57;;;2.27;;
67053;SDS011;53960;51.826;5.850;2024-01-15T01:34:47;5.73;;;1.83;;
67053;SDS011;53960;51.826;5.850;2024-01-15T01:37:13;7.00;;;2.00;;
67053;SDS011;53960;51.826;5.850;2024-01-15T01:39:39;8.73;;;1.80;;
67053;SDS011;53960;51.826;5.850;2024-01-15T01:42:05;6.40;;;1.60;;
67053;SDS011;53960;51.826;5.850;2024-01-15T01:44:31;6.40;;;1.38;;
67053;SDS011;53960;51.826;5.850;2024-01-15T01:46:57;6.47;;;1.60;;
67053;SDS011;53960;51.826;5.850;2024-01-15T01:49:24;9.90;;;1.88;;
67053;SDS011;53960;51.826;5.850;2024-01-15T01:51:50;6.50;;;1.58;;
67053;SDS011;53960;51.826;5.850;2024-01-15T01:54:16;8.80;;;1.80;;
67053;SDS011;53960;51.826;5.850;2024-01-15T01:56:43;9.25;;;1.40;;
67053;SDS011;53960;51.826;5.850;2024-01-15T01:59:09;8.30;;;1.40;;
67053;SDS011;53960;51.826;5.850;2024-01-15T02:01:34;7.40;;;1.40;;
67053;SDS011;53960;51.826;5.850;2024-01-15T02:04:00;7.47;;;1.80;;
67053;SDS011;53960;51.826;5.850;2024-01-15T02:06:26;6.00;;;1.50;;
67053;SDS011;53960;51.826;5.850;2024-01-15T02:08:52;10.20;;;1.80;;
67053;SDS011;53960;51.826;5.850;2024-01-15T02:11:18;7.57;;;1.83;;
67053;SDS011;53960;51.826;5.850;2024-01-15T02:13:43;6.47;;;1.40;;
67053;SDS011;53960;51.826;5.850;2024-01-15T02:16:08;7.07;;;1.35;;
67053;SDS011;53960;51.826;5.850;2024-01-15T02:18:44;6.40;;;1.70;;
67053;SDS011;53960;51.826;5.850;2024-01-15T02:21:10;7.07;;;1.43;;
67053;SDS011;53960;51.826;5.850;2024-01-15T02:23:36;7.32;;;1.55;;
67053;SDS011;53960;51.826;5.850;2024-01-15T02:26:02;8.13;;;1.48;;
67053;SDS011;53960;51.826;5.850;2024-01-15T02:28:29;8.05;;;1.70;;
67053;SDS011;53960;51.826;5.850;2024-01-15T02:30:55;10.00;;;1.60;;
67053;SDS011;53960;51.826;5.850;2024-01-15T02:33:20;6.55;;;1.30;;
67053;SDS011;53960;51.826;5.850;2024-01-15T02:35:46;7.63;;;1.70;;
67053;SDS011;53960;51.826;5.850;2024-01-15T02:38:11;6.77;;;1.40;;
67053;SDS011;53960;51.826;5.850;2024-01-15T02:40:37;6.50;;;1.35;;
67053;SDS011;53960;51.826;5.850;2024-01-15T02:43:03;8.00;;;1.43;;
67053;SDS011;53960;51.826;5.850;2024-01-15T02:45:29;9.30;;;1.50;;
67053;SDS011;53960;51.826;5.850;2024-01-15T02:47:54;7.73;;;1.83;;
67053;SDS011;53960;51.826;5.850;2024-01-15T02:50:20;7.37;;;1.60;;
67053;SDS011;53960;51.826;5.850;2024-01-15T02:52:45;10.18;;;1.48;;
67053;SDS011;53960;51.826;5.850;2024-01-15T02:55:11;8.93;;;1.63;;
67053;SDS011;53960;51.826;5.850;2024-01-15T02:57:36;7.73;;;1.40;;
67053;SDS011;53960;51.826;5.850;2024-01-15T03:00:01;5.90;;;1.33;;
67053;SDS011;53960;51.826;5.850;2024-01-15T03:02:28;8.27;;;1.40;;
67053;SDS011;53960;51.826;5.850;2024-01-15T03:04:54;7.83;;;1.37;;
67053;SDS011;53960;51.826;5.850;2024-01-15T03:07:19;9.88;;;2.22;;
67053;SDS011;53960;51.826;5.850;2024-01-15T03:09:44;7.43;;;1.43;;
67053;SDS011;53960;51.826;5.850;2024-01-15T03:12:10;10.57;;;1.70;;
67053;SDS011;53960;51.826;5.850;2024-01-15T03:14:36;6.05;;;1.38;;
67053;SDS011;53960;51.826;5.850;2024-01-15T03:17:01;9.20;;;1.20;;
67053;SDS011;53960;51.826;5.850;2024-01-15T03:19:27;10.33;;;1.50;;
67053;SDS011;53960;51.826;5.850;2024-01-15T03:21:52;6.00;;;1.20;;
67053;SDS011;53960;51.826;5.850;2024-01-15T03:24:18;7.70;;;1.40;;
67053;SDS011;53960;51.826;5.850;2024-01-15T03:26:43;4.93;;;0.95;;
67053;SDS011;53960;51.826;5.850;2024-01-15T03:29:09;8.20;;;1.70;;
67053;SDS011;53960;51.826;5.850;2024-01-15T03:31:34;5.97;;;1.63;;
67053;SDS011;53960;51.826;5.850;2024-01-15T03:34:00;12.50;;;1.80;;
67053;SDS011;53960;51.826;5.850;2024-01-15T03:36:25;8.73;;;1.40;;
67053;SDS011;53960;51.826;5.850;2024-01-15T03:38:50;7.33;;;1.30;;
67053;SDS011;53960;51.826;5.850;2024-01-15T03:41:16;10.63;;;1.60;;
67053;SDS011;53960;51.826;5.850;2024-01-15T03:43:41;7.82;;;1.40;;
67053;SDS011;53960;51.826;5.850;2024-01-15T03:46:07;8.33;;;1.30;;
67053;SDS011;53960;51.826;5.850;2024-01-15T03:48:32;5.53;;;1.13;;
67053;SDS011;53960;51.826;5.850;2024-01-15T03:50:57;7.47;;;1.33;;
67053;SDS011;53960;51.826;5.850;2024-01-15T03:53:23;7.07;;;1.40;;
67053;SDS011;53960;51.826;5.850;2024-01-15T03:55:48;7.33;;;1.50;;
67053;SDS011;53960;51.826;5.850;2024-01-15T03:58:14;7.90;;;1.20;;
67053;SDS011;53960;51.826;5.850;2024-01-15T04:00:40;7.50;;;1.42;;
67053;SDS011;53960;51.826;5.850;2024-01-15T04:03:05;6.40;;;1.10;;
67053;SDS011;53960;51.826;5.850;2024-01-15T04:05:32;8.10;;;1.40;;
67053;SDS011;53960;51.826;5.850;2024-01-15T04:07:58;8.23;;;1.40;;
67053;SDS011;53960;51.826;5.850;2024-01-15T04:10:24;8.00;;;1.20;;
67053;SDS011;53960;51.826;5.850;2024-01-15T04:12:49;6.03;;;1.30;;
67053;SDS011;53960;51.826;5.850;2024-01-15T04:15:15;13.97;;;1.70;;
67053;SDS011;53960;51.826;5.850;2024-01-15T04:17:40;9.80;;;1.50;;
67053;SDS011;53960;51.826;5.850;2024-01-15T04:20:06;9.37;;;1.50;;
67053;SDS011;53960;51.826;5.850;2024-01-15T04:22:32;7.07;;;1.30;;
67053;SDS011;53960;51.826;5.850;2024-01-15T04:24:59;8.30;;;1.05;;
67053;SDS011;53960;51.826;5.850;2024-01-15T04:27:24;5.17;;;1.00;;
67053;SDS011;53960;51.826;5.850;2024-01-15T04:29:49;10.37;;;1.40;;
67053;SDS011;53960;51.826;5.850;2024-01-15T04:32:15;5.87;;;1.00;;
67053;SDS011;53960;51.826;5.850;2024-01-15T04:34:40;6.87;;;1.23;;
67053;SDS011;53960;51.826;5.850;2024-01-15T04:37:05;5.03;;;0.97;;
67053;SDS011;53960;51.826;5.850;2024-01-15T04:39:30;7.43;;;1.30;;
67053;SDS011;53960;51.826;5.850;2024-01-15T04:41:56;10.00;;;1.40;;
67053;SDS011;53960;51.826;5.850;2024-01-15T04:44:21;9.53;;;1.60;;
67053;SDS011;53960;51.826;5.850;2024-01-15T04:46:47;9.10;;;1.63;;
67053;SDS011;53960;51.826;5.850;2024-01-15T04:49:12;6.40;;;0.90;;
67053;SDS011;53960;51.826;5.850;2024-01-15T04:51:37;8.37;;;1.30;;
67053;SDS011;53960;51.826;5.850;2024-01-15T04:54:03;8.03;;;1.20;;
67053;SDS011;53960;51.826;5.850;2024-01-15T04:56:28;7.88;;;1.10;;
67053;SDS011;53960;51.826;5.850;2024-01-15T04:58:54;7.53;;;1.47;;
67053;SDS011;53960;51.826;5.850;2024-01-15T05:01:19;6.37;;;1.27;;
67053;SDS011;53960;51.826;5.850;2024-01-15T05:03:45;8.93;;;1.30;;
67053;SDS011;53960;51.826;5.850;2024-01-15T05:06:10;9.20;;;1.20;;
67053;SDS011;53960;51.826;5.850;2024-01-15T05:08:35;6.23;;;1.27;;
67053;SDS011;53960;51.826;5.850;2024-01-15T05:11:00;8.73;;;1.73;;
67053;SDS011;53960;51.826;5.850;2024-01-15T05:13:26;5.33;;;1.17;;
67053;SDS011;53960;51.826;5.850;2024-01-15T05:15:51;10.43;;;1.48;;
67053;SDS011;53960;51.826;5.850;2024-01-15T05:18:17;5.90;;;1.10;;
67053;SDS011;53960;51.826;5.850;2024-01-15T05:20:42;11.57;;;1.70;;
67053;SDS011;53960;51.826;5.850;2024-01-15T05:23:07;6.60;;;1.23;;
67053;SDS011;53960;51.826;5.850;2024-01-15T05:25:35;4.33;;;1.10;;
67053;SDS011;53960;51.826;5.850;2024-01-15T05:28:01;7.90;;;1.27;;
67053;SDS011;53960;51.826;5.850;2024-01-15T05:30:26;8.48;;;1.30;;
67053;SDS011;53960;51.826;5.850;2024-01-15T05:32:51;9.67;;;1.60;;
67053;SDS011;53960;51.826;5.850;2024-01-15T05:35:17;5.43;;;1.20;;
67053;SDS011;53960;51.826;5.850;2024-01-15T05:37:43;5.43;;;1.27;;
67053;SDS011;53960;51.826;5.850;2024-01-15T05:40:10;5.20;;;1.25;;
67053;SDS011;53960;51.826;5.850;2024-01-15T05:42:36;6.97;;;1.25;;
67053;SDS011;53960;51.826;5.850;2024-01-15T05:45:01;8.50;;;1.60;;
67053;SDS011;53960;51.826;5.850;2024-01-15T05:47:29;10.15;;;1.90;;
67053;SDS011;53960;51.826;5.850;2024-01-15T05:49:54;8.23;;;1.70;;
67053;SDS011;53960;51.826;5.850;2024-01-15T05:52:21;5.63;;;1.30;;
67053;SDS011;53960;51.826;5.850;2024-01-15T05:54:46;6.53;;;1.40;;
67053;SDS011;53960;51.826;5.850;2024-01-15T05:57:12;6.38;;;1.40;;
67053;SDS011;53960;51.826;5.850;2024-01-15T05:59:38;6.83;;;1.70;;
67053;SDS011;53960;51.826;5.850;2024-01-15T06:02:03;7.13;;;1.63;;
67053;SDS011;53960;51.826;5.850;2024-01-15T06:04:29;6.15;;;1.40;;
67053;SDS011;53960;51.826;5.850;2024-01-15T06:06:54;7.03;;;1.60;;
67053;SDS011;53960;51.826;5.850;2024-01-15T06:09:19;7.00;;;1.50;;
67053;SDS011;53960;51.826;5.850;2024-01-15T06:11:44;5.57;;;1.67;;
67053;SDS011;53960;51.826;5.850;2024-01-15T06:14:10;6.17;;;1.77;;
67053;SDS011;53960;51.826;5.850;2024-01-15T06:16:35;7.27;;;2.03;;
67053;SDS011;53960;51.826;5.850;2024-01-15T06:19:01;8.57;;;2.00;;
67053;SDS011;53960;51.826;5.850;2024-01-15T06:21:26;7.17;;;1.97;;
67053;SDS011;53960;51.826;5.850;2024-01-15T06:23:51;5.80;;;2.03;;
67053;SDS011;53960;51.826;5.850;2024-01-15T06:26:17;6.87;;;2.27;;
67053;SDS011;53960;51.826;5.850;2024-01-15T06:28:42;4.97;;;1.65;;
67053;SDS011;53960;51.826;5.850;2024-01-15T06:31:08;6.63;;;1.97;;
67053;SDS011;53960;51.826;5.850;2024-01-15T06:33:33;6.70;;;2.00;;
67053;SDS011;53960;51.826;5.850;2024-01-15T06:35:59;7.80;;;1.97;;
67053;SDS011;53960;51.826;5.850;2024-01-15T06:38:24;6.30;;;1.97;;
67053;SDS011;53960;51.826;5.850;2024-01-15T06:40:50;6.30;;;1.95;;
67053;SDS011;53960;51.826;5.850;2024-01-15T06:43:16;6.20;;;2.30;;
67053;SDS011;53960;51.826;5.850;2024-01-15T06:45:43;7.53;;;2.60;;
67053;SDS011;53960;51.826;5.850;2024-01-15T06:48:09;7.00;;;2.20;;
67053;SDS011;53960;51.826;5.850;2024-01-15T06:50:34;7.47;;;2.30;;
67053;SDS011;53960;51.826;5.850;2024-01-15T06:53:00;8.00;;;2.20;;
67053;SDS011;53960;51.826;5.850;2024-01-15T06:55:25;7.63;;;2.50;;
67053;SDS011;53960;51.826;5.850;2024-01-15T06:57:51;7.63;;;2.50;;
67053;SDS011;53960;51.826;5.850;2024-01-15T07:00:17;6.82;;;2.10;;
67053;SDS011;53960;51.826;5.850;2024-01-15T07:02:44;7.70;;;2.00;;
67053;SDS011;53960;51.826;5.850;2024-01-15T07:05:09;6.23;;;2.13;;
67053;SDS011;53960;51.826;5.850;2024-01-15T07:07:35;8.88;;;2.83;;
67053;SDS011;53960;51.826;5.850;2024-01-15T07:10:01;7.17;;;2.80;;
67053;SDS011;53960;51.826;5.850;2024-01-15T07:12:27;9.00;;;2.95;;
67053;SDS011;53960;51.826;5.850;2024-01-15T07:14:52;7.70;;;2.50;;
67053;SDS011;53960;51.826;5.850;2024-01-15T07:17:17;7.53;;;2.77;;
67053;SDS011;53960;51.826;5.850;2024-01-15T07:19:43;6.30;;;2.17;;
67053;SDS011;53960;51.826;5.850;2024-01-15T07:22:08;7.27;;;2.30;;
67053;SDS011;53960;51.826;5.850;2024-01-15T07:24:33;6.73;;;2.20;;
67053;SDS011;53960;51.826;5.850;2024-01-15T07:27:00;6.60;;;2.58;;
67053;SDS011;53960;51.826;5.850;2024-01-15T07:29:25;6.47;;;2.10;;
67053;SDS011;53960;51.826;5.850;2024-01-15T07:31:51;5.87;;;2.07;;
67053;SDS011;53960;51.826;5.850;2024-01-15T07:34:16;7.13;;;1.92;;
67053;SDS011;53960;51.826;5.850;2024-01-15T07:36:45;6.53;;;2.55;;
67053;SDS011;53960;51.826;5.850;2024-01-15T07:39:10;6.17;;;2.13;;
67053;SDS011;53960;51.826;5.850;2024-01-15T07:41:36;6.50;;;2.28;;
67053;SDS011;53960;51.826;5.850;2024-01-15T07:44:02;6.27;;;1.90;;
67053;SDS011;53960;51.826;5.850;2024-01-15T07:46:27;6.50;;;1.97;;
67053;SDS011;53960;51.826;5.850;2024-01-15T07:48:53;5.60;;;1.60;;
67053;SDS011;53960;51.826;5.850;2024-01-15T07:51:24;6.30;;;1.80;;
67053;SDS011;53960;51.826;5.850;2024-01-15T07:53:50;5.60;;;1.70;;
67053;SDS011;53960;51.826;5.850;2024-01-15T07:56:18;6.13;;;1.77;;
67053;SDS011;53960;51.826;5.850;2024-01-15T07:58:43;6.63;;;1.80;;
67053;SDS011;53960;51.826;5.850;2024-01-15T08:01:08;6.03;;;1.60;;
67053;SDS011;53960;51.826;5.850;2024-01-15T08:03:34;5.45;;;1.70;;
67053;SDS011;53960;51.826;5.850;2024-01-15T08:05:59;6.83;;;2.10;;
67053;SDS011;53960;51.826;5.850;2024-01-15T08:08:25;4.70;;;1.30;;
67053;SDS011;53960;51.826;5.850;2024-01-15T08:10:52;5.68;;;1.90;;
67053;SDS011;53960;51.826;5.850;2024-01-15T08:13:17;7.05;;;1.90;;
67053;SDS011;53960;51.826;5.850;2024-01-15T08:15:43;5.80;;;1.80;;
67053;SDS011;53960;51.826;5.850;2024-01-15T08:18:08;6.40;;;1.90;;
67053;SDS011;53960;51.826;5.850;2024-01-15T08:20:34;7.33;;;2.00;;
67053;SDS011;53960;51.826;5.850;2024-01-15T08:22:59;8.02;;;2.13;;
67053;SDS011;53960;51.826;5.850;2024-01-15T08:25:25;6.20;;;1.90;;
67053;SDS011;53960;51.826;5.850;2024-01-15T08:27:51;7.40;;;2.10;;
67053;SDS011;53960;51.826;5.850;2024-01-15T08:30:16;6.93;;;1.87;;
67053;SDS011;53960;51.826;5.850;2024-01-15T08:32:43;7.55;;;1.60;;
67053;SDS011;53960;51.826;5.850;2024-01-15T08:35:09;6.07;;;1.77;;
67053;SDS011;53960;51.826;5.850;2024-01-15T08:37:34;8.30;;;2.00;;
67053;SDS011;53960;51.826;5.850;2024-01-15T08:40:00;7.13;;;1.50;;
67053;SDS011;53960;51.826;5.850;2024-01-15T08:42:25;6.63;;;1.67;;
67053;SDS011;53960;51.826;5.850;2024-01-15T08:44:50;6.10;;;1.67;;
67053;SDS011;53960;51.826;5.850;2024-01-15T08:47:16;7.77;;;1.80;;
67053;SDS011;53960;51.826;5.850;2024-01-15T08:49:42;7.83;;;2.00;;
67053;SDS011;53960;51.826;5.850;2024-01-15T08:52:09;6.75;;;1.70;;
67053;SDS011;53960;51.826;5.850;2024-01-15T08:54:34;6.00;;;1.47;;
67053;SDS011;53960;51.826;5.850;2024-01-15T08:57:00;6.82;;;1.60;;
67053;SDS011;53960;51.826;5.850;2024-01-15T08:59:25;8.83;;;1.97;;
67053;SDS011;53960;51.826;5.850;2024-01-15T09:01:54;6.40;;;1.70;;
67053;SDS011;53960;51.826;5.850;2024-01-15T09:04:22;5.85;;;1.52;;
67053;SDS011;53960;51.826;5.850;2024-01-15T09:06:48;6.95;;;2.15;;
67053;SDS011;53960;51.826;5.850;2024-01-15T09:09:14;6.20;;;1.63;;
67053;SDS011;53960;51.826;5.850;2024-01-15T09:11:40;5.67;;;1.50;;
67053;SDS011;53960;51.826;5.850;2024-01-15T09:14:06;6.65;;;1.33;;
67053;SDS011;53960;51.826;5.850;2024-01-15T09:16:31;6.23;;;1.13;;
67053;SDS011;53960;51.826;5.850;2024-01-15T09:18:57;7.87;;;1.30;;
67053;SDS011;53960;51.826;5.850;2024-01-15T09:21:23;7.87;;;1.33;;
67053;SDS011;53960;51.826;5.850;2024-01-15T09:23:49;7.80;;;1.30;;
67053;SDS011;53960;51.826;5.850;2024-01-15T09:26:15;6.07;;;0.90;;
67053;SDS011;53960;51.826;5.850;2024-01-15T09:28:40;5.00;;;1.10;;
67053;SDS011;53960;51.826;5.850;2024-01-15T09:31:06;3.38;;;0.70;;
67053;SDS011;53960;51.826;5.850;2024-01-15T09:33:32;4.57;;;0.80;;
67053;SDS011;53960;51.826;5.850;2024-01-15T09:36:00;7.23;;;1.33;;
67053;SDS011;53960;51.826;5.850;2024-01-15T09:38:26;4.63;;;1.13;;
67053;SDS011;53960;51.826;5.850;2024-01-15T09:40:52;6.00;;;1.00;;
67053;SDS011;53960;51.826;5.850;2024-01-15T09:43:17;4.80;;;1.10;;
67053;SDS011;53960;51.826;5.850;2024-01-15T09:45:44;5.70;;;0.90;;
67053;SDS011;53960;51.826;5.850;2024-01-15T09:48:09;5.07;;;1.10;;
67053;SDS011;53960;51.826;5.850;2024-01-15T09:50:35;5.00;;;1.07;;
67053;SDS011;53960;51.826;5.850;2024-01-15T09:53:00;3.60;;;0.90;;
67053;SDS011;53960;51.826;5.850;2024-01-15T09:55:26;5.25;;;1.02;;
67053;SDS011;53960;51.826;5.850;2024-01-15T09:57:52;5.60;;;1.30;;
67053;SDS011;53960;51.826;5.850;2024-01-15T10:00:20;6.28;;;1.42;;
67053;SDS011;53960;51.826;5.850;2024-01-15T10:02:47;7.50;;;1.10;;
67053;SDS011;53960;51.826;5.850;2024-01-15T10:05:12;5.50;;;1.15;;
67053;SDS011;53960;51.826;5.850;2024-01-15T10:07:38;8.37;;;1.43;;
67053;SDS011;53960;51.826;5.850;2024-01-15T10:10:04;6.85;;;1.50;;
67053;SDS011;53960;51.826;5.850;2024-01-15T10:12:30;5.43;;;1.20;;
67053;SDS011;53960;51.826;5.850;2024-01-15T10:14:56;5.70;;;1.40;;
67053;SDS011;53960;51.826;5.850;2024-01-15T10:17:21;6.55;;;1.67;;
67053;SDS011;53960;51.826;5.850;2024-01-15T10:19:46;7.73;;;1.60;;
67053;SDS011;53960;51.826;5.850;2024-01-15T10:22:13;7.57;;;1.70;;
67053;SDS011;53960;51.826;5.850;2024-01-15T10:24:40;6.25;;;2.00;;
67053;SDS011;53960;51.826;5.850;2024-01-15T10:27:06;8.20;;;2.30;;
67053;SDS011;53960;51.826;5.850;2024-01-15T10:29:32;7.88;;;2.92;;
67053;SDS011;53960;51.826;5.850;2024-01-15T10:31:58;7.30;;;2.83;;
67053;SDS011;53960;51.826;5.850;2024-01-15T10:34:24;8.20;;;3.13;;
67053;SDS011;53960;51.826;5.850;2024-01-15T10:36:50;9.13;;;3.50;;
67053;SDS011;53960;51.826;5.850;2024-01-15T10:39:20;9.63;;;3.33;;
67053;SDS011;53960;51.826;5.850;2024-01-15T10:41:49;9.20;;;3.38;;
67053;SDS011;53960;51.826;5.850;2024-01-15T10:44:16;8.20;;;3.53;;
67053;SDS011;53960;51.826;5.850;2024-01-15T10:46:41;10.00;;;3.40;;
67053;SDS011;53960;51.826;5.850;2024-01-15T10:49:08;7.97;;;2.72;;
67053;SDS011;53960;51.826;5.850;2024-01-15T10:51:35;9.20;;;2.85;;
67053;SDS011;53960;51.826;5.850;2024-01-15T10:54:01;8.77;;;2.70;;
67053;SDS011;53960;51.826;5.850;2024-01-15T10:56:27;10.07;;;2.70;;
67053;SDS011;53960;51.826;5.850;2024-01-15T10:58:53;10.50;;;2.93;;
67053;SDS011;53960;51.826;5.850;2024-01-15T11:01:19;8.15;;;2.50;;
67053;SDS011;53960;51.826;5.850;2024-01-15T11:03:45;8.55;;;2.30;;
67053;SDS011;53960;51.826;5.850;2024-01-15T11:06:18;11.13;;;1.95;;
67053;SDS011;53960;51.826;5.850;2024-01-15T11:08:45;7.68;;;2.20;;
67053;SDS011;53960;51.826;5.850;2024-01-15T11:11:13;7.73;;;1.90;;
67053;SDS011;53960;51.826;5.850;2024-01-15T11:16:05;6.83;;;1.73;;
67053;SDS011;53960;51.826;5.850;2024-01-15T11:18:34;11.17;;;1.70;;
67053;SDS011;53960;51.826;5.850;2024-01-15T11:21:21;8.73;;;1.65;;
67053;SDS011;53960;51.826;5.850;2024-01-15T11:23:52;6.55;;;1.00;;
67053;SDS011;53960;51.826;5.850;2024-01-15T11:28:54;5.85;;;1.02;;
67053;SDS011;53960;51.826;5.850;2024-01-15T11:31:20;5.10;;;1.03;;
67053;SDS011;53960;51.826;5.850;2024-01-15T11:33:49;3.55;;;1.05;;
67053;SDS011;53960;51.826;5.850;2024-01-15T11:36:14;5.50;;;0.87;;
67053;SDS011;53960;51.826;5.850;2024-01-15T11:38:40;5.70;;;0.80;;
67053;SDS011;53960;51.826;5.850;2024-01-15T11:41:13;5.90;;;0.90;;
67053;SDS011;53960;51.826;5.850;2024-01-15T11:43:40;4.43;;;0.90;;
67053;SDS011;53960;51.826;5.850;2024-01-15T11:46:05;7.07;;;1.07;;
67053;SDS011;53960;51.826;5.850;2024-01-15T11:48:42;7.00;;;1.05;;
67053;SDS011;53960;51.826;5.850;2024-01-15T11:51:11;5.07;;;1.20;;
67053;SDS011;53960;51.826;5.850;2024-01-15T11:53:44;6.68;;;1.00;;
67053;SDS011;53960;51.826;5.850;2024-01-15T11:56:15;4.03;;;0.73;;
67053;SDS011;53960;51.826;5.850;2024-01-15T11:58:44;7.47;;;0.98;;
67053;SDS011;53960;51.826;5.850;2024-01-15T12:01:12;5.00;;;1.00;;
67053;SDS011;53960;51.826;5.850;2024-01-15T12:03:38;7.60;;;1.00;;
67053;SDS011;53960;51.826;5.850;2024-01-15T12:06:06;6.20;;;1.20;;
67053;SDS011;53960;51.826;5.850;2024-01-15T12:08:32;5.43;;;1.02;;
67053;SDS011;53960;51.826;5.850;2024-01-15T12:10:58;7.60;;;1.27;;
67053;SDS011;53960;51.826;5.850;2024-01-15T12:13:23;6.40;;;1.10;;
67053;SDS011;53960;51.826;5.850;2024-01-15T12:15:49;8.60;;;1.20;;
67053;SDS011;53960;51.826;5.850;2024-01-15T12:18:16;7.57;;;1.48;;
67053;SDS011;53960;51.826;5.850;2024-01-15T12:20:43;6.22;;;1.30;;
67053;SDS011;53960;51.826;5.850;2024-01-15T12:23:11;5.70;;;1.17;;
67053;SDS011;53960;51.826;5.850;2024-01-15T12:25:38;6.40;;;1.50;;
67053;SDS011;53960;51.826;5.850;2024-01-15T12:28:04;4.43;;;1.37;;
67053;SDS011;53960;51.826;5.850;2024-01-15T12:30:30;6.88;;;1.63;;
67053;SDS011;53960;51.826;5.850;2024-01-15T12:32:57;5.57;;;1.30;;
67053;SDS011;53960;51.826;5.850;2024-01-15T12:35:26;9.07;;;1.40;;
67053;SDS011;53960;51.826;5.850;2024-01-15T12:37:52;9.90;;;2.22;;
67053;SDS011;53960;51.826;5.850;2024-01-15T12:40:19;6.78;;;1.42;;
67053;SDS011;53960;51.826;5.850;2024-01-15T12:42:47;5.80;;;1.40;;
67053;SDS011;53960;51.826;5.850;2024-01-15T12:45:12;4.70;;;1.00;;
67053;SDS011;53960;51.826;5.850;2024-01-15T12:47:39;5.70;;;1.20;;
67053;SDS011;53960;51.826;5.850;2024-01-15T12:50:06;6.00;;;1.38;;
67053;SDS011;53960;51.826;5.850;2024-01-15T12:52:33;6.93;;;1.50;;
67053;SDS011;53960;51.826;5.850;2024-01-15T12:54:58;8.67;;;1.57;;
67053;SDS011;53960;51.826;5.850;2024-01-15T12:57:23;6.75;;;1.35;;
67053;SDS011;53960;51.826;5.850;2024-01-15T12:59:49;8.23;;;1.40;;
67053;SDS011;53960;51.826;5.850;2024-01-15T13:02:15;6.07;;;1.60;;
67053;SDS011;53960;51.826;5.850;2024-01-15T13:04:41;6.25;;;1.10;;
67053;SDS011;53960;51.826;5.850;2024-01-15T13:07:07;6.38;;;1.30;;
67053;SDS011;53960;51.826;5.850;2024-01-15T13:09:33;6.37;;;1.40;;
67053;SDS011;53960;51.826;5.850;2024-01-15T13:11:58;6.13;;;0.93;;
67053;SDS011;53960;51.826;5.850;2024-01-15T13:14:24;7.03;;;1.20;;
67053;SDS011;53960;51.826;5.850;2024-01-15T13:16:49;5.57;;;0.93;;
67053;SDS011;53960;51.826;5.850;2024-01-15T13:19:15;5.40;;;0.90;;
67053;SDS011;53960;51.826;5.850;2024-01-15T13:21:40;5.83;;;1.20;;
67053;SDS011;53960;51.826;5.850;2024-01-15T13:24:07;5.15;;;1.08;;
67053;SDS011;53960;51.826;5.850;2024-01-15T13:26:33;5.60;;;1.10;;
67053;SDS011;53960;51.826;5.850;2024-01-15T13:29:02;6.60;;;1.30;;
67053;SDS011;53960;51.826;5.850;2024-01-15T13:31:28;6.68;;;1.30;;
67053;SDS011;53960;51.826;5.850;2024-01-15T13:33:54;6.40;;;1.50;;
67053;SDS011;53960;51.826;5.850;2024-01-15T13:36:20;7.32;;;1.33;;
67053;SDS011;53960;51.826;5.850;2024-01-15T13:38:48;4.85;;;0.90;;
67053;SDS011;53960;51.826;5.850;2024-01-15T13:41:14;5.07;;;0.80;;
67053;SDS011;53960;51.826;5.850;2024-01-15T13:43:40;7.00;;;1.23;;
67053;SDS011;53960;51.826;5.850;2024-01-15T13:46:05;4.50;;;0.90;;
67053;SDS011;53960;51.826;5.850;2024-01-15T13:48:30;3.63;;;1.10;;
67053;SDS011;53960;51.826;5.850;2024-01-15T13:50:58;7.93;;;1.45;;
67053;SDS011;53960;51.826;5.850;2024-01-15T13:53:24;7.73;;;1.10;;
67053;SDS011;53960;51.826;5.850;2024-01-15T13:55:50;7.00;;;1.10;;
67053;SDS011;53960;51.826;5.850;2024-01-15T13:58:15;4.33;;;1.00;;
67053;SDS011;53960;51.826;5.850;2024-01-15T14:00:42;6.07;;;1.23;;
67053;SDS011;53960;51.826;5.850;2024-01-15T14:03:08;4.70;;;0.90;;
67053;SDS011;53960;51.826;5.850;2024-01-15T14:05:33;4.00;;;0.93;;
67053;SDS011;53960;51.826;5.850;2024-01-15T14:07:58;8.37;;;1.00;;
67053;SDS011;53960;51.826;5.850;2024-01-15T14:10:24;5.33;;;1.00;;
67053;SDS011;53960;51.826;5.850;2024-01-15T14:12:49;6.10;;;1.07;;
67053;SDS011;53960;51.826;5.850;2024-01-15T14:15:14;4.83;;;1.10;;
67053;SDS011;53960;51.826;5.850;2024-01-15T14:17:40;4.97;;;1.05;;
67053;SDS011;53960;51.826;5.850;2024-01-15T14:20:05;4.87;;;0.83;;
67053;SDS011;53960;51.826;5.850;2024-01-15T14:22:31;4.55;;;1.00;;
67053;SDS011;53960;51.826;5.850;2024-01-15T14:24:57;4.07;;;1.10;;
67053;SDS011;53960;51.826;5.850;2024-01-15T14:27:24;4.30;;;0.83;;
67053;SDS011;53960;51.826;5.850;2024-01-15T14:29:49;5.53;;;1.40;;
67053;SDS011;53960;51.826;5.850;2024-01-15T14:32:14;6.33;;;1.17;;
67053;SDS011;53960;51.826;5.850;2024-01-15T14:34:39;5.50;;;0.80;;
67053;SDS011;53960;51.826;5.850;2024-01-15T14:37:05;4.67;;;1.00;;
67053;SDS011;53960;51.826;5.850;2024-01-15T14:39:31;3.67;;;0.85;;
67053;SDS011;53960;51.826;5.850;2024-01-15T14:41:59;9.25;;;1.38;;
67053;SDS011;53960;51.826;5.850;2024-01-15T14:44:25;5.80;;;1.10;;